sensor_id;sensor_type;location;lat;lon;timestamp;temperature;humidity
72883;DHT22;61017;37.812;-122.286;2024-03-22T00:01:28;16.80;81.40
72883;DHT22;61017;37.812;-122.286;2024-03-22T00:03:00;16.70;81.30
72883;DHT22;61017;37.812;-122.286;2024-03-22T00:04:31;16.70;81.40
72883;DHT22;61017;37.812;-122.286;2024-03-22T00:06:03;16.80;81.50
72883;DHT22;61017;37.812;-122.286;2024-03-22T00:07:35;16.80;81.60
72883;DHT22;61017;37.812;-122.286;2024-03-22T00:09:10;16.70;81.50
72883;DHT22;61017;37.812;-122.286;2024-03-22T00:10:42;16.80;81.70
72883;DHT22;61017;37.812;-122.286;2024-03-22T00:12:14;16.80;81.60
72883;DHT22;61017;37.812;-122.286;2024-03-22T00:13:46;16.70;81.60
72883;DHT22;61017;37.812;-122.286;2024-03-22T00:15:18;16.70;81.70
72883;DHT22;61017;37.812;-122.286;2024-03-22T00:16:50;16.80;81.80
72883;DHT22;61017;37.812;-122.286;2024-03-22T00:18:22;16.80;81.80
72883;DHT22;61017;37.812;-122.286;2024-03-22T00:19:56;16.70;81.90
72883;DHT22;61017;37.812;-122.286;2024-03-22T00:21:28;16.70;81.80
72883;DHT22;61017;37.812;-122.286;2024-03-22T00:23:00;16.80;82.00
72883;DHT22;61017;37.812;-122.286;2024-03-22T00:24:32;16.70;82.00
72883;DHT22;61017;37.812;-122.286;2024-03-22T00:26:04;16.70;82.10
72883;DHT22;61017;37.812;-122.286;2024-03-22T00:27:35;16.70;82.10
72883;DHT22;61017;37.812;-122.286;2024-03-22T00:29:07;16.70;82.20
72883;DHT22;61017;37.812;-122.286;2024-03-22T00:30:39;16.70;82.30
72883;DHT22;61017;37.812;-122.286;2024-03-22T00:32:10;16.70;82.20
72883;DHT22;61017;37.812;-122.286;2024-03-22T00:33:42;16.70;82.40
72883;DHT22;61017;37.812;-122.286;2024-03-22T00:35:14;16.70;82.50
72883;DHT22;61017;37.812;-122.286;2024-03-22T00:36:45;16.70;82.50
72883;DHT22;61017;37.812;-122.286;2024-03-22T00:38:17;16.70;82.30
72883;DHT22;61017;37.812;-122.286;2024-03-22T00:39:50;16.70;82.60
72883;DHT22;61017;37.812;-122.286;2024-03-22T00:41:22;16.70;82.50
72883;DHT22;61017;37.812;-122.286;2024-03-22T00:42:53;16.70;83.20
72883;DHT22;61017;37.812;-122.286;2024-03-22T00:44:25;16.70;82.60
72883;DHT22;61017;37.812;-122.286;2024-03-22T00:45:56;16.70;82.70
72883;DHT22;61017;37.812;-122.286;2024-03-22T00:47:28;16.70;82.80
72883;DHT22;61017;37.812;-122.286;2024-03-22T00:49:00;16.70;82.80
72883;DHT22;61017;37.812;-122.286;2024-03-22T00:50:31;16.70;82.90
72883;DHT22;61017;37.812;-122.286;2024-03-22T00:52:03;16.70;82.80
72883;DHT22;61017;37.812;-122.286;2024-03-22T00:53:34;16.70;82.80
72883;DHT22;61017;37.812;-122.286;2024-03-22T00:55:06;16.70;82.80
72883;DHT22;61017;37.812;-122.286;2024-03-22T00:56:38;16.70;82.90
72883;DHT22;61017;37.812;-122.286;2024-03-22T00:58:10;16.70;82.90
72883;DHT22;61017;37.812;-122.286;2024-03-22T00:59:42;16.70;82.80
72883;DHT22;61017;37.812;-122.286;2024-03-22T01:01:14;16.70;82.90
72883;DHT22;61017;37.812;-122.286;2024-03-22T01:02:45;16.70;82.90
72883;DHT22;61017;37.812;-122.286;2024-03-22T01:04:17;16.70;83.00
72883;DHT22;61017;37.812;-122.286;2024-03-22T01:05:48;16.70;83.00
72883;DHT22;61017;37.812;-122.286;2024-03-22T01:07:20;16.70;83.00
72883;DHT22;61017;37.812;-122.286;2024-03-22T01:08:52;16.70;83.00
72883;DHT22;61017;37.812;-122.286;2024-03-22T01:10:24;16.70;83.10
72883;DHT22;61017;37.812;-122.286;2024-03-22T01:11:56;16.70;83.00
72883;DHT22;61017;37.812;-122.286;2024-03-22T01:13:28;16.70;83.10
72883;DHT22;61017;37.812;-122.286;2024-03-22T01:15:00;16.70;83.20
72883;DHT22;61017;37.812;-122.286;2024-03-22T01:16:34;16.70;83.10
72883;DHT22;61017;37.812;-122.286;2024-03-22T01:18:06;16.70;83.20
72883;DHT22;61017;37.812;-122.286;2024-03-22T01:19:38;16.70;83.10
72883;DHT22;61017;37.812;-122.286;2024-03-22T01:21:09;16.70;83.20
72883;DHT22;61017;37.812;-122.286;2024-03-22T01:22:41;16.70;83.30
72883;DHT22;61017;37.812;-122.286;2024-03-22T01:24:13;16.70;83.20
72883;DHT22;61017;37.812;-122.286;2024-03-22T01:25:45;16.70;83.20
72883;DHT22;61017;37.812;-122.286;2024-03-22T01:27:17;16.70;83.20
72883;DHT22;61017;37.812;-122.286;2024-03-22T01:28:49;16.70;83.20
72883;DHT22;61017;37.812;-122.286;2024-03-22T01:30:20;16.70;83.40
72883;DHT22;61017;37.812;-122.286;2024-03-22T01:31:52;16.80;84.70
72883;DHT22;61017;37.812;-122.286;2024-03-22T01:33:23;17.20;81.30
72883;DHT22;61017;37.812;-122.286;2024-03-22T01:34:55;17.60;77.60
72883;DHT22;61017;37.812;-122.286;2024-03-22T01:36:27;17.90;74.80
72883;DHT22;61017;37.812;-122.286;2024-03-22T01:37:59;18.10;73.00
72883;DHT22;61017;37.812;-122.286;2024-03-22T01:39:30;18.30;71.10
72883;DHT22;61017;37.812;-122.286;2024-03-22T01:41:02;18.40;69.90
72883;DHT22;61017;37.812;-122.286;2024-03-22T01:42:34;18.50;68.50
72883;DHT22;61017;37.812;-122.286;2024-03-22T01:44:06;18.70;67.70
72883;DHT22;61017;37.812;-122.286;2024-03-22T01:45:38;18.70;66.80
72883;DHT22;61017;37.812;-122.286;2024-03-22T01:47:09;18.80;66.00
72883;DHT22;61017;37.812;-122.286;2024-03-22T01:48:41;18.70;70.90
72883;DHT22;61017;37.812;-122.286;2024-03-22T01:50:13;18.30;71.60
72883;DHT22;61017;37.812;-122.286;2024-03-22T01:51:44;18.00;73.20
72883;DHT22;61017;37.812;-122.286;2024-03-22T01:53:16;17.80;74.60
72883;DHT22;61017;37.812;-122.286;2024-03-22T01:54:48;17.60;75.80
72883;DHT22;61017;37.812;-122.286;2024-03-22T01:56:20;17.50;77.20
72883;DHT22;61017;37.812;-122.286;2024-03-22T01:57:55;17.30;77.70
72883;DHT22;61017;37.812;-122.286;2024-03-22T01:59:28;17.20;78.40
72883;DHT22;61017;37.812;-122.286;2024-03-22T02:01:01;17.20;79.00
72883;DHT22;61017;37.812;-122.286;2024-03-22T02:02:33;17.10;79.30
72883;DHT22;61017;37.812;-122.286;2024-03-22T02:04:04;17.10;79.70
72883;DHT22;61017;37.812;-122.286;2024-03-22T02:05:36;17.00;79.70
72883;DHT22;61017;37.812;-122.286;2024-03-22T02:07:08;17.10;80.10
72883;DHT22;61017;37.812;-122.286;2024-03-22T02:08:40;17.00;80.10
72883;DHT22;61017;37.812;-122.286;2024-03-22T02:10:12;17.00;80.30
72883;DHT22;61017;37.812;-122.286;2024-03-22T02:11:44;17.00;80.60
72883;DHT22;61017;37.812;-122.286;2024-03-22T02:13:16;17.00;80.60
72883;DHT22;61017;37.812;-122.286;2024-03-22T02:14:48;17.00;81.10
72883;DHT22;61017;37.812;-122.286;2024-03-22T02:16:21;16.90;81.20
72883;DHT22;61017;37.812;-122.286;2024-03-22T02:17:53;16.90;81.00
72883;DHT22;61017;37.812;-122.286;2024-03-22T02:19:24;16.90;81.80
72883;DHT22;61017;37.812;-122.286;2024-03-22T02:20:59;16.90;81.60
72883;DHT22;61017;37.812;-122.286;2024-03-22T02:22:31;16.90;81.60
72883;DHT22;61017;37.812;-122.286;2024-03-22T02:24:03;16.90;81.50
72883;DHT22;61017;37.812;-122.286;2024-03-22T02:25:35;16.90;81.90
72883;DHT22;61017;37.812;-122.286;2024-03-22T02:27:06;16.90;81.70
72883;DHT22;61017;37.812;-122.286;2024-03-22T02:28:38;16.90;81.80
72883;DHT22;61017;37.812;-122.286;2024-03-22T02:30:10;16.90;82.00
72883;DHT22;61017;37.812;-122.286;2024-03-22T02:31:41;16.90;81.70
72883;DHT22;61017;37.812;-122.286;2024-03-22T02:33:13;16.80;81.40
72883;DHT22;61017;37.812;-122.286;2024-03-22T02:34:45;16.80;81.70
72883;DHT22;61017;37.812;-122.286;2024-03-22T02:36:17;16.80;81.70
72883;DHT22;61017;37.812;-122.286;2024-03-22T02:37:48;16.80;81.80
72883;DHT22;61017;37.812;-122.286;2024-03-22T02:39:20;16.80;81.60
72883;DHT22;61017;37.812;-122.286;2024-03-22T02:40:53;16.80;81.70
72883;DHT22;61017;37.812;-122.286;2024-03-22T02:42:24;16.80;81.70
72883;DHT22;61017;37.812;-122.286;2024-03-22T02:43:56;16.80;81.90
72883;DHT22;61017;37.812;-122.286;2024-03-22T02:45:29;16.80;81.80
72883;DHT22;61017;37.812;-122.286;2024-03-22T02:47:01;16.80;81.90
72883;DHT22;61017;37.812;-122.286;2024-03-22T02:48:33;16.80;82.00
72883;DHT22;61017;37.812;-122.286;2024-03-22T02:50:05;16.80;82.20
72883;DHT22;61017;37.812;-122.286;2024-03-22T02:51:36;16.80;82.20
72883;DHT22;61017;37.812;-122.286;2024-03-22T02:53:08;16.80;82.00
72883;DHT22;61017;37.812;-122.286;2024-03-22T02:54:40;16.80;82.30
72883;DHT22;61017;37.812;-122.286;2024-03-22T02:56:14;16.80;82.20
72883;DHT22;61017;37.812;-122.286;2024-03-22T02:57:46;16.80;82.90
72883;DHT22;61017;37.812;-122.286;2024-03-22T02:59:17;16.80;82.40
72883;DHT22;61017;37.812;-122.286;2024-03-22T03:00:49;16.80;82.50
72883;DHT22;61017;37.812;-122.286;2024-03-22T03:02:21;16.80;82.60
72883;DHT22;61017;37.812;-122.286;2024-03-22T03:03:52;16.80;83.00
72883;DHT22;61017;37.812;-122.286;2024-03-22T03:05:24;16.80;82.30
72883;DHT22;61017;37.812;-122.286;2024-03-22T03:06:55;16.80;82.50
72883;DHT22;61017;37.812;-122.286;2024-03-22T03:08:27;16.80;82.80
72883;DHT22;61017;37.812;-122.286;2024-03-22T03:10:01;16.80;82.80
72883;DHT22;61017;37.812;-122.286;2024-03-22T03:11:33;16.80;82.90
72883;DHT22;61017;37.812;-122.286;2024-03-22T03:13:05;16.80;82.80
72883;DHT22;61017;37.812;-122.286;2024-03-22T03:14:36;16.80;83.00
72883;DHT22;61017;37.812;-122.286;2024-03-22T03:16:08;16.80;83.00
72883;DHT22;61017;37.812;-122.286;2024-03-22T03:17:40;16.70;82.90
72883;DHT22;61017;37.812;-122.286;2024-03-22T03:19:12;16.80;83.10
72883;DHT22;61017;37.812;-122.286;2024-03-22T03:20:44;16.80;83.10
72883;DHT22;61017;37.812;-122.286;2024-03-22T03:22:16;16.70;83.10
72883;DHT22;61017;37.812;-122.286;2024-03-22T03:23:47;16.70;82.60
72883;DHT22;61017;37.812;-122.286;2024-03-22T03:25:19;16.70;83.10
72883;DHT22;61017;37.812;-122.286;2024-03-22T03:26:51;16.70;83.00
72883;DHT22;61017;37.812;-122.286;2024-03-22T03:28:22;16.70;83.20
72883;DHT22;61017;37.812;-122.286;2024-03-22T03:29:54;16.70;83.20
72883;DHT22;61017;37.812;-122.286;2024-03-22T03:31:26;16.70;83.30
72883;DHT22;61017;37.812;-122.286;2024-03-22T03:32:57;16.70;83.30
72883;DHT22;61017;37.812;-122.286;2024-03-22T03:34:29;16.70;83.30
72883;DHT22;61017;37.812;-122.286;2024-03-22T03:36:00;16.70;83.20
72883;DHT22;61017;37.812;-122.286;2024-03-22T03:37:32;16.70;83.50
72883;DHT22;61017;37.812;-122.286;2024-03-22T03:39:04;16.70;83.40
72883;DHT22;61017;37.812;-122.286;2024-03-22T03:40:35;16.70;83.40
72883;DHT22;61017;37.812;-122.286;2024-03-22T03:42:07;16.70;83.50
72883;DHT22;61017;37.812;-122.286;2024-03-22T03:43:38;16.70;83.50
72883;DHT22;61017;37.812;-122.286;2024-03-22T03:45:10;16.70;83.60
72883;DHT22;61017;37.812;-122.286;2024-03-22T03:46:41;16.70;83.50
72883;DHT22;61017;37.812;-122.286;2024-03-22T03:48:13;16.70;83.60
72883;DHT22;61017;37.812;-122.286;2024-03-22T03:49:48;16.70;83.40
72883;DHT22;61017;37.812;-122.286;2024-03-22T03:51:19;16.70;83.60
72883;DHT22;61017;37.812;-122.286;2024-03-22T03:52:51;16.70;83.60
72883;DHT22;61017;37.812;-122.286;2024-03-22T03:54:25;16.70;83.70
72883;DHT22;61017;37.812;-122.286;2024-03-22T03:55:57;16.70;83.60
72883;DHT22;61017;37.812;-122.286;2024-03-22T03:57:28;16.70;83.60
72883;DHT22;61017;37.812;-122.286;2024-03-22T03:59:00;16.70;83.80
72883;DHT22;61017;37.812;-122.286;2024-03-22T04:00:32;16.70;83.80
72883;DHT22;61017;37.812;-122.286;2024-03-22T04:02:03;16.70;83.80
72883;DHT22;61017;37.812;-122.286;2024-03-22T04:03:35;16.70;83.80
72883;DHT22;61017;37.812;-122.286;2024-03-22T04:05:07;16.70;83.90
72883;DHT22;61017;37.812;-122.286;2024-03-22T04:06:38;16.70;83.80
72883;DHT22;61017;37.812;-122.286;2024-03-22T04:08:10;16.70;84.00
72883;DHT22;61017;37.812;-122.286;2024-03-22T04:09:42;16.70;83.90
72883;DHT22;61017;37.812;-122.286;2024-03-22T04:11:13;16.70;84.00
72883;DHT22;61017;37.812;-122.286;2024-03-22T04:12:45;16.70;84.00
72883;DHT22;61017;37.812;-122.286;2024-03-22T04:14:17;16.70;84.00
72883;DHT22;61017;37.812;-122.286;2024-03-22T04:15:48;16.70;84.10
72883;DHT22;61017;37.812;-122.286;2024-03-22T04:17:20;16.70;84.00
72883;DHT22;61017;37.812;-122.286;2024-03-22T04:18:51;16.70;84.00
72883;DHT22;61017;37.812;-122.286;2024-03-22T04:20:23;16.70;84.00
72883;DHT22;61017;37.812;-122.286;2024-03-22T04:21:54;16.70;84.20
72883;DHT22;61017;37.812;-122.286;2024-03-22T04:23:26;16.70;84.10
72883;DHT22;61017;37.812;-122.286;2024-03-22T04:24:57;16.70;84.20
72883;DHT22;61017;37.812;-122.286;2024-03-22T04:26:29;16.70;84.00
72883;DHT22;61017;37.812;-122.286;2024-03-22T04:28:01;16.70;84.20
72883;DHT22;61017;37.812;-122.286;2024-03-22T04:29:32;16.70;84.20
72883;DHT22;61017;37.812;-122.286;2024-03-22T04:31:08;16.70;84.10
72883;DHT22;61017;37.812;-122.286;2024-03-22T04:32:40;16.70;84.10
72883;DHT22;61017;37.812;-122.286;2024-03-22T04:34:11;16.70;84.30
72883;DHT22;61017;37.812;-122.286;2024-03-22T04:35:45;16.70;84.20
72883;DHT22;61017;37.812;-122.286;2024-03-22T04:37:17;16.70;84.10
72883;DHT22;61017;37.812;-122.286;2024-03-22T04:38:48;16.70;84.30
72883;DHT22;61017;37.812;-122.286;2024-03-22T04:40:20;16.70;84.10
72883;DHT22;61017;37.812;-122.286;2024-03-22T04:41:52;16.70;84.20
72883;DHT22;61017;37.812;-122.286;2024-03-22T04:43:24;16.70;84.30
72883;DHT22;61017;37.812;-122.286;2024-03-22T04:44:56;16.70;84.40
72883;DHT22;61017;37.812;-122.286;2024-03-22T04:46:27;16.70;84.20
72883;DHT22;61017;37.812;-122.286;2024-03-22T04:48:00;16.70;84.40
72883;DHT22;61017;37.812;-122.286;2024-03-22T04:49:32;16.70;84.30
72883;DHT22;61017;37.812;-122.286;2024-03-22T04:51:04;16.70;84.20
72883;DHT22;61017;37.812;-122.286;2024-03-22T04:52:35;16.70;84.40
72883;DHT22;61017;37.812;-122.286;2024-03-22T04:54:07;16.70;84.40
72883;DHT22;61017;37.812;-122.286;2024-03-22T04:55:39;16.70;84.40
72883;DHT22;61017;37.812;-122.286;2024-03-22T04:57:13;16.70;84.20
72883;DHT22;61017;37.812;-122.286;2024-03-22T04:58:44;16.70;84.40
72883;DHT22;61017;37.812;-122.286;2024-03-22T05:00:16;16.70;85.40
72883;DHT22;61017;37.812;-122.286;2024-03-22T05:01:48;17.10;81.30
72883;DHT22;61017;37.812;-122.286;2024-03-22T05:03:19;17.40;78.50
72883;DHT22;61017;37.812;-122.286;2024-03-22T05:04:51;17.70;75.70
72883;DHT22;61017;37.812;-122.286;2024-03-22T05:06:23;17.90;73.60
72883;DHT22;61017;37.812;-122.286;2024-03-22T05:07:54;18.20;71.70
72883;DHT22;61017;37.812;-122.286;2024-03-22T05:09:26;18.30;70.30
72883;DHT22;61017;37.812;-122.286;2024-03-22T05:10:57;18.50;69.30
72883;DHT22;61017;37.812;-122.286;2024-03-22T05:12:29;18.60;68.00
72883;DHT22;61017;37.812;-122.286;2024-03-22T05:14:01;18.70;67.00
72883;DHT22;61017;37.812;-122.286;2024-03-22T05:15:32;18.70;66.50
72883;DHT22;61017;37.812;-122.286;2024-03-22T05:17:04;18.80;67.50
72883;DHT22;61017;37.812;-122.286;2024-03-22T05:18:36;18.40;71.40
72883;DHT22;61017;37.812;-122.286;2024-03-22T05:20:07;18.00;72.50
72883;DHT22;61017;37.812;-122.286;2024-03-22T05:21:39;17.80;73.80
72883;DHT22;61017;37.812;-122.286;2024-03-22T05:23:11;17.60;75.30
72883;DHT22;61017;37.812;-122.286;2024-03-22T05:24:42;17.40;76.40
72883;DHT22;61017;37.812;-122.286;2024-03-22T05:26:14;17.30;77.20
72883;DHT22;61017;37.812;-122.286;2024-03-22T05:27:46;17.20;77.80
72883;DHT22;61017;37.812;-122.286;2024-03-22T05:29:17;17.10;78.30
72883;DHT22;61017;37.812;-122.286;2024-03-22T05:30:49;17.10;78.80
72883;DHT22;61017;37.812;-122.286;2024-03-22T05:32:20;17.10;79.10
72883;DHT22;61017;37.812;-122.286;2024-03-22T05:33:52;17.00;79.30
72883;DHT22;61017;37.812;-122.286;2024-03-22T05:35:23;17.00;79.60
72883;DHT22;61017;37.812;-122.286;2024-03-22T05:36:55;17.00;80.00
72883;DHT22;61017;37.812;-122.286;2024-03-22T05:38:27;16.90;80.10
72883;DHT22;61017;37.812;-122.286;2024-03-22T05:39:59;16.90;80.40
72883;DHT22;61017;37.812;-122.286;2024-03-22T05:41:30;16.90;80.50
72883;DHT22;61017;37.812;-122.286;2024-03-22T05:43:02;16.90;80.70
72883;DHT22;61017;37.812;-122.286;2024-03-22T05:44:33;16.90;81.00
72883;DHT22;61017;37.812;-122.286;2024-03-22T05:46:05;16.90;81.10
72883;DHT22;61017;37.812;-122.286;2024-03-22T05:47:37;16.90;81.40
72883;DHT22;61017;37.812;-122.286;2024-03-22T05:49:08;16.80;81.50
72883;DHT22;61017;37.812;-122.286;2024-03-22T05:50:41;16.80;81.70
72883;DHT22;61017;37.812;-122.286;2024-03-22T05:52:12;16.80;81.60
72883;DHT22;61017;37.812;-122.286;2024-03-22T05:53:44;16.80;82.10
72883;DHT22;61017;37.812;-122.286;2024-03-22T05:55:16;16.80;82.00
72883;DHT22;61017;37.812;-122.286;2024-03-22T05:56:47;16.80;82.10
72883;DHT22;61017;37.812;-122.286;2024-03-22T05:58:19;16.80;82.80
72883;DHT22;61017;37.812;-122.286;2024-03-22T05:59:50;16.80;82.40
72883;DHT22;61017;37.812;-122.286;2024-03-22T06:01:22;16.80;82.50
72883;DHT22;61017;37.812;-122.286;2024-03-22T06:02:53;16.80;82.00
72883;DHT22;61017;37.812;-122.286;2024-03-22T06:04:25;16.80;82.30
72883;DHT22;61017;37.812;-122.286;2024-03-22T06:05:59;16.80;82.10
72883;DHT22;61017;37.812;-122.286;2024-03-22T06:07:30;16.80;81.90
72883;DHT22;61017;37.812;-122.286;2024-03-22T06:09:02;16.80;81.90
72883;DHT22;61017;37.812;-122.286;2024-03-22T06:10:34;16.80;82.00
72883;DHT22;61017;37.812;-122.286;2024-03-22T06:12:06;16.80;82.20
72883;DHT22;61017;37.812;-122.286;2024-03-22T06:13:37;16.80;82.50
72883;DHT22;61017;37.812;-122.286;2024-03-22T06:15:09;16.80;82.90
72883;DHT22;61017;37.812;-122.286;2024-03-22T06:16:41;16.70;83.10
72883;DHT22;61017;37.812;-122.286;2024-03-22T06:18:12;16.70;82.90
72883;DHT22;61017;37.812;-122.286;2024-03-22T06:19:44;16.70;82.50
72883;DHT22;61017;37.812;-122.286;2024-03-22T06:21:15;16.70;83.10
72883;DHT22;61017;37.812;-122.286;2024-03-22T06:22:47;16.70;82.60
72883;DHT22;61017;37.812;-122.286;2024-03-22T06:24:19;16.70;82.90
72883;DHT22;61017;37.812;-122.286;2024-03-22T06:25:54;16.70;82.70
72883;DHT22;61017;37.812;-122.286;2024-03-22T06:27:26;16.70;82.90
72883;DHT22;61017;37.812;-122.286;2024-03-22T06:29:01;16.70;82.90
72883;DHT22;61017;37.812;-122.286;2024-03-22T06:30:32;16.70;82.70
72883;DHT22;61017;37.812;-122.286;2024-03-22T06:32:04;16.70;83.20
72883;DHT22;61017;37.812;-122.286;2024-03-22T06:33:36;16.70;83.10
72883;DHT22;61017;37.812;-122.286;2024-03-22T06:35:08;16.70;83.00
72883;DHT22;61017;37.812;-122.286;2024-03-22T06:36:39;16.70;83.30
72883;DHT22;61017;37.812;-122.286;2024-03-22T06:38:11;16.70;83.10
72883;DHT22;61017;37.812;-122.286;2024-03-22T06:39:42;16.70;83.20
72883;DHT22;61017;37.812;-122.286;2024-03-22T06:41:14;16.70;83.30
72883;DHT22;61017;37.812;-122.286;2024-03-22T06:42:45;16.70;83.20
72883;DHT22;61017;37.812;-122.286;2024-03-22T06:44:17;16.70;83.30
72883;DHT22;61017;37.812;-122.286;2024-03-22T06:45:49;16.70;83.30
72883;DHT22;61017;37.812;-122.286;2024-03-22T06:47:20;16.70;83.10
72883;DHT22;61017;37.812;-122.286;2024-03-22T06:48:52;16.70;83.20
72883;DHT22;61017;37.812;-122.286;2024-03-22T06:50:24;16.70;83.60
72883;DHT22;61017;37.812;-122.286;2024-03-22T06:51:55;16.70;83.40
72883;DHT22;61017;37.812;-122.286;2024-03-22T06:53:27;16.70;83.40
72883;DHT22;61017;37.812;-122.286;2024-03-22T06:54:58;16.70;83.40
72883;DHT22;61017;37.812;-122.286;2024-03-22T06:56:30;16.70;83.60
72883;DHT22;61017;37.812;-122.286;2024-03-22T06:58:02;16.70;83.60
72883;DHT22;61017;37.812;-122.286;2024-03-22T06:59:33;16.70;83.50
72883;DHT22;61017;37.812;-122.286;2024-03-22T07:01:05;16.70;83.60
72883;DHT22;61017;37.812;-122.286;2024-03-22T07:02:37;16.70;83.50
72883;DHT22;61017;37.812;-122.286;2024-03-22T07:04:08;16.70;83.70
72883;DHT22;61017;37.812;-122.286;2024-03-22T07:05:40;16.70;83.60
72883;DHT22;61017;37.812;-122.286;2024-03-22T07:07:11;16.70;83.70
72883;DHT22;61017;37.812;-122.286;2024-03-22T07:08:43;16.70;83.80
72883;DHT22;61017;37.812;-122.286;2024-03-22T07:10:14;16.70;83.70
72883;DHT22;61017;37.812;-122.286;2024-03-22T07:11:46;16.70;83.90
72883;DHT22;61017;37.812;-122.286;2024-03-22T07:13:18;16.70;83.70
72883;DHT22;61017;37.812;-122.286;2024-03-22T07:14:49;16.70;83.80
72883;DHT22;61017;37.812;-122.286;2024-03-22T07:16:21;16.70;83.80
72883;DHT22;61017;37.812;-122.286;2024-03-22T07:17:53;16.60;83.60
72883;DHT22;61017;37.812;-122.286;2024-03-22T07:19:24;16.60;83.60
72883;DHT22;61017;37.812;-122.286;2024-03-22T07:20:56;16.70;83.90
72883;DHT22;61017;37.812;-122.286;2024-03-22T07:22:27;16.70;83.80
72883;DHT22;61017;37.812;-122.286;2024-03-22T07:23:59;16.70;83.80
72883;DHT22;61017;37.812;-122.286;2024-03-22T07:25:30;16.60;83.80
72883;DHT22;61017;37.812;-122.286;2024-03-22T07:27:02;16.60;83.60
72883;DHT22;61017;37.812;-122.286;2024-03-22T07:28:35;16.60;83.90
72883;DHT22;61017;37.812;-122.286;2024-03-22T07:30:07;16.60;83.80
72883;DHT22;61017;37.812;-122.286;2024-03-22T07:31:39;16.70;83.90
72883;DHT22;61017;37.812;-122.286;2024-03-22T07:33:11;16.60;83.80
72883;DHT22;61017;37.812;-122.286;2024-03-22T07:34:46;16.60;83.90
72883;DHT22;61017;37.812;-122.286;2024-03-22T07:36:17;16.60;83.90
72883;DHT22;61017;37.812;-122.286;2024-03-22T07:37:49;16.60;83.90
72883;DHT22;61017;37.812;-122.286;2024-03-22T07:39:20;16.70;84.10
72883;DHT22;61017;37.812;-122.286;2024-03-22T07:40:52;16.60;84.00
72883;DHT22;61017;37.812;-122.286;2024-03-22T07:42:24;16.60;84.00
72883;DHT22;61017;37.812;-122.286;2024-03-22T07:43:59;16.60;84.00
72883;DHT22;61017;37.812;-122.286;2024-03-22T07:45:31;16.60;84.80
72883;DHT22;61017;37.812;-122.286;2024-03-22T07:47:03;16.60;84.00
72883;DHT22;61017;37.812;-122.286;2024-03-22T07:48:35;16.60;83.90
72883;DHT22;61017;37.812;-122.286;2024-03-22T07:50:06;16.60;84.00
72883;DHT22;61017;37.812;-122.286;2024-03-22T07:51:38;16.60;84.00
72883;DHT22;61017;37.812;-122.286;2024-03-22T07:53:10;16.60;84.00
72883;DHT22;61017;37.812;-122.286;2024-03-22T07:54:41;16.60;84.20
72883;DHT22;61017;37.812;-122.286;2024-03-22T07:56:13;16.60;84.10
72883;DHT22;61017;37.812;-122.286;2024-03-22T07:57:44;16.60;84.10
72883;DHT22;61017;37.812;-122.286;2024-03-22T07:59:16;16.60;84.10
72883;DHT22;61017;37.812;-122.286;2024-03-22T08:00:47;16.60;84.10
72883;DHT22;61017;37.812;-122.286;2024-03-22T08:02:19;16.60;84.10
72883;DHT22;61017;37.812;-122.286;2024-03-22T08:03:51;16.60;84.10
72883;DHT22;61017;37.812;-122.286;2024-03-22T08:05:23;16.60;84.00
72883;DHT22;61017;37.812;-122.286;2024-03-22T08:06:54;16.60;84.10
72883;DHT22;61017;37.812;-122.286;2024-03-22T08:08:26;16.60;84.00
72883;DHT22;61017;37.812;-122.286;2024-03-22T08:09:57;16.60;84.10
72883;DHT22;61017;37.812;-122.286;2024-03-22T08:11:29;16.60;84.20
72883;DHT22;61017;37.812;-122.286;2024-03-22T08:13:00;16.60;84.20
72883;DHT22;61017;37.812;-122.286;2024-03-22T08:14:35;16.60;84.20
72883;DHT22;61017;37.812;-122.286;2024-03-22T08:16:07;16.60;84.10
72883;DHT22;61017;37.812;-122.286;2024-03-22T08:17:38;16.60;84.20
72883;DHT22;61017;37.812;-122.286;2024-03-22T08:19:10;16.60;84.20
72883;DHT22;61017;37.812;-122.286;2024-03-22T08:20:42;16.60;84.20
72883;DHT22;61017;37.812;-122.286;2024-03-22T08:22:13;16.60;84.10
72883;DHT22;61017;37.812;-122.286;2024-03-22T08:23:45;16.60;84.40
72883;DHT22;61017;37.812;-122.286;2024-03-22T08:25:16;16.60;84.30
72883;DHT22;61017;37.812;-122.286;2024-03-22T08:26:48;16.60;84.30
72883;DHT22;61017;37.812;-122.286;2024-03-22T08:28:19;16.60;84.40
72883;DHT22;61017;37.812;-122.286;2024-03-22T08:29:51;16.60;84.50
72883;DHT22;61017;37.812;-122.286;2024-03-22T08:31:22;16.60;84.40
72883;DHT22;61017;37.812;-122.286;2024-03-22T08:32:54;16.60;84.30
72883;DHT22;61017;37.812;-122.286;2024-03-22T08:34:25;16.60;84.40
72883;DHT22;61017;37.812;-122.286;2024-03-22T08:35:57;16.60;84.30
72883;DHT22;61017;37.812;-122.286;2024-03-22T08:37:29;16.60;84.60
72883;DHT22;61017;37.812;-122.286;2024-03-22T08:39:00;16.80;83.90
72883;DHT22;61017;37.812;-122.286;2024-03-22T08:40:32;17.20;79.60
72883;DHT22;61017;37.812;-122.286;2024-03-22T08:42:04;17.40;76.70
72883;DHT22;61017;37.812;-122.286;2024-03-22T08:43:35;17.70;74.60
72883;DHT22;61017;37.812;-122.286;2024-03-22T08:45:07;17.90;72.70
72883;DHT22;61017;37.812;-122.286;2024-03-22T08:46:39;18.00;71.00
72883;DHT22;61017;37.812;-122.286;2024-03-22T08:48:11;18.20;69.60
72883;DHT22;61017;37.812;-122.286;2024-03-22T08:49:42;18.40;68.50
72883;DHT22;61017;37.812;-122.286;2024-03-22T08:51:14;18.40;67.70
72883;DHT22;61017;37.812;-122.286;2024-03-22T08:52:45;18.50;67.00
72883;DHT22;61017;37.812;-122.286;2024-03-22T08:54:17;18.60;66.30
72883;DHT22;61017;37.812;-122.286;2024-03-22T08:55:49;18.40;71.40
72883;DHT22;61017;37.812;-122.286;2024-03-22T08:57:20;18.00;72.10
72883;DHT22;61017;37.812;-122.286;2024-03-22T08:58:52;17.70;73.10
72883;DHT22;61017;37.812;-122.286;2024-03-22T09:00:23;17.50;74.70
72883;DHT22;61017;37.812;-122.286;2024-03-22T09:01:55;17.30;75.90
72883;DHT22;61017;37.812;-122.286;2024-03-22T09:03:26;17.20;76.90
72883;DHT22;61017;37.812;-122.286;2024-03-22T09:04:58;17.10;78.00
72883;DHT22;61017;37.812;-122.286;2024-03-22T09:06:29;17.00;78.60
72883;DHT22;61017;37.812;-122.286;2024-03-22T09:08:01;17.00;78.80
72883;DHT22;61017;37.812;-122.286;2024-03-22T09:09:33;16.90;79.10
72883;DHT22;61017;37.812;-122.286;2024-03-22T09:11:04;16.90;79.50
72883;DHT22;61017;37.812;-122.286;2024-03-22T09:12:36;16.80;79.60
72883;DHT22;61017;37.812;-122.286;2024-03-22T09:14:10;16.80;80.30